createdAt,value
2018-02-10T00:02:19.111Z,50.97
2018-02-10T00:04:48.298Z,54.10
2018-02-10T00:07:17.455Z,58.50
2018-02-10T00:09:46.605Z,53.30
2018-02-10T00:12:15.917Z,52.43
2018-02-10T00:14:45.090Z,51.80
2018-02-10T00:17:14.278Z,52.30
2018-02-10T00:19:43.525Z,51.07
2018-02-10T00:22:18.654Z,53.27
2018-02-10T00:24:47.866Z,51.97
2018-02-10T00:27:17.000Z,51.67
2018-02-10T00:29:46.144Z,53.13
2018-02-10T00:32:15.313Z,54.53
2018-02-10T00:34:44.497Z,53.60
2018-02-10T00:37:13.631Z,67.87
2018-02-10T00:39:42.813Z,56.27
2018-02-10T00:42:11.948Z,64.43
2018-02-10T00:44:41.081Z,54.43
2018-02-10T00:47:10.246Z,60.30
2018-02-10T00:49:39.673Z,57.23
2018-02-10T00:52:08.817Z,55.73
2018-02-10T00:54:38.035Z,57.90
2018-02-10T00:57:07.181Z,53.10
2018-02-10T00:59:36.370Z,52.67
2018-02-10T01:02:05.536Z,54.13
2018-02-10T01:04:34.685Z,52.67
2018-02-10T01:07:03.945Z,50.30
2018-02-10T01:09:33.089Z,52.33
2018-02-10T01:12:02.225Z,54.17
2018-02-10T01:14:31.686Z,52.70
2018-02-10T01:17:00.834Z,51.17
2018-02-10T01:19:29.973Z,52.43
2018-02-10T01:21:59.138Z,52.87
2018-02-10T01:24:28.304Z,51.47
2018-02-10T01:26:57.469Z,48.80
2018-02-10T01:29:26.641Z,50.47
2018-02-10T01:31:55.794Z,49.10
2018-02-10T01:34:24.933Z,48.70
2018-02-10T01:36:54.126Z,50.57
2018-02-10T01:39:23.273Z,51.47
2018-02-10T01:41:52.603Z,48.10
2018-02-10T01:44:21.862Z,49.97
2018-02-10T01:46:50.994Z,47.00
2018-02-10T01:49:20.465Z,48.43
2018-02-10T01:51:49.682Z,48.37
2018-02-10T01:54:18.868Z,49.30
2018-02-10T01:56:48.025Z,49.23
2018-02-10T01:59:17.164Z,45.97
2018-02-10T02:01:46.317Z,47.87
2018-02-10T02:04:15.481Z,50.03
2018-02-10T02:09:09.698Z,47.13
2018-02-10T02:11:39.301Z,49.00
2018-02-10T02:14:08.440Z,48.83
2018-02-10T02:16:37.590Z,49.00
2018-02-10T02:19:06.752Z,47.57
2018-02-10T02:21:35.890Z,45.23
2018-02-10T02:24:05.041Z,49.23
2018-02-10T02:26:34.230Z,50.40
2018-02-10T02:29:03.407Z,49.57
2018-02-10T02:31:32.548Z,47.53
2018-02-10T02:34:01.726Z,49.80
2018-02-10T02:36:30.871Z,49.50
2018-02-10T02:39:00.010Z,48.23
2018-02-10T02:41:29.177Z,47.50
2018-02-10T02:43:58.329Z,47.30
2018-02-10T02:46:27.466Z,49.40
2018-02-10T02:48:56.632Z,49.00
2018-02-10T02:51:25.777Z,46.77
2018-02-10T02:53:54.917Z,50.10
2018-02-10T02:59:02.954Z,50.23
2018-02-10T03:01:32.128Z,51.03
2018-02-10T03:04:01.264Z,50.10
2018-02-10T03:06:30.392Z,52.57
2018-02-10T03:08:59.556Z,47.87
2018-02-10T03:11:28.697Z,46.90
2018-02-10T03:13:57.847Z,48.83
2018-02-10T03:16:27.089Z,51.00
2018-02-10T03:18:56.225Z,49.77
2018-02-10T03:21:25.362Z,52.27
2018-02-10T03:23:54.557Z,49.83
2018-02-10T03:26:23.707Z,50.50
2018-02-10T03:28:52.880Z,46.00
2018-02-10T03:31:22.023Z,47.17
2018-02-10T03:33:51.161Z,48.73
2018-02-10T03:36:20.329Z,45.60
2018-02-10T03:38:49.496Z,50.77
2018-02-10T03:41:18.646Z,50.17
2018-02-10T03:43:47.825Z,48.80
2018-02-10T03:46:16.973Z,47.10
2018-02-10T03:48:46.195Z,49.40
2018-02-10T03:51:15.376Z,52.83
2018-02-10T03:53:44.526Z,51.93
2018-02-10T03:56:13.729Z,51.30
2018-02-10T03:58:42.879Z,49.70
2018-02-10T04:01:12.022Z,53.80
2018-02-10T04:03:41.172Z,52.73
2018-02-10T04:06:10.326Z,55.20
2018-02-10T04:08:39.505Z,51.87
2018-02-10T04:11:08.642Z,51.80
2018-02-10T04:13:37.770Z,53.87
2018-02-10T04:16:06.951Z,55.33
2018-02-10T04:18:36.082Z,52.90
2018-02-10T04:21:05.262Z,52.63
2018-02-10T04:23:34.476Z,53.07
2018-02-10T04:26:03.657Z,51.83
2018-02-10T04:28:32.792Z,54.37
2018-02-10T04:31:02.032Z,53.77
2018-02-10T04:33:31.172Z,51.00
2018-02-10T04:36:00.684Z,51.90
2018-02-10T04:38:29.838Z,54.50
2018-02-10T04:40:58.974Z,53.00
2018-02-10T04:43:28.143Z,52.27
2018-02-10T04:45:57.288Z,54.17
2018-02-10T04:48:26.429Z,52.37
2018-02-10T04:50:55.653Z,49.10
2018-02-10T04:53:24.810Z,51.90
2018-02-10T04:55:53.953Z,51.50
2018-02-10T04:58:23.110Z,52.00
2018-02-10T05:00:52.260Z,49.27
2018-02-10T05:03:21.392Z,54.27
2018-02-10T05:05:50.558Z,52.30
2018-02-10T05:08:19.730Z,51.60
2018-02-10T05:10:48.867Z,52.50
2018-02-10T05:13:18.014Z,54.40
2018-02-10T05:15:47.190Z,49.27
2018-02-10T05:18:16.384Z,49.30
2018-02-10T05:20:45.506Z,52.87
2018-02-10T05:23:14.668Z,49.37
2018-02-10T05:25:43.813Z,50.23
2018-02-10T05:28:13.026Z,50.23
2018-02-10T05:30:42.165Z,49.33
2018-02-10T05:33:11.312Z,50.13
2018-02-10T05:35:40.500Z,51.67
2018-02-10T05:38:09.640Z,47.53
2018-02-10T05:40:38.781Z,48.53
2018-02-10T05:43:07.928Z,51.10
2018-02-10T05:45:37.068Z,49.23
2018-02-10T05:48:06.250Z,52.20
2018-02-10T05:50:35.388Z,49.30
2018-02-10T05:53:04.531Z,49.87
2018-02-10T05:55:33.722Z,52.63
2018-02-10T05:58:02.892Z,50.57
2018-02-10T06:00:32.053Z,49.30
2018-02-10T06:03:01.185Z,51.73
2018-02-10T06:05:30.369Z,49.43
2018-02-10T06:07:59.541Z,52.67
2018-02-10T06:10:28.677Z,53.77
2018-02-10T06:12:57.862Z,52.50
2018-02-10T06:15:27.008Z,49.20
2018-02-10T06:17:56.142Z,51.97
2018-02-10T06:20:25.327Z,50.77
2018-02-10T06:22:54.465Z,53.77
2018-02-10T06:25:23.687Z,51.87
2018-02-10T06:27:52.918Z,51.67
2018-02-10T06:30:22.061Z,53.20
2018-02-10T06:32:51.211Z,49.27
2018-02-10T06:35:20.406Z,48.67
2018-02-10T06:37:49.553Z,49.03
2018-02-10T06:40:18.703Z,53.90
2018-02-10T06:42:47.861Z,51.03
2018-02-10T06:45:17.005Z,53.73
2018-02-10T06:47:46.143Z,54.20
2018-02-10T06:50:15.597Z,51.47
2018-02-10T06:52:44.740Z,53.10
2018-02-10T06:55:13.890Z,52.50
2018-02-10T06:57:43.057Z,49.33
2018-02-10T07:00:12.213Z,52.47
2018-02-10T07:02:41.357Z,50.63
2018-02-10T07:05:10.547Z,52.47
2018-02-10T07:07:39.730Z,50.20
2018-02-10T07:10:08.990Z,51.47
2018-02-10T07:12:38.132Z,52.87
2018-02-10T07:15:07.312Z,54.50
2018-02-10T07:17:36.453Z,50.00
2018-02-10T07:20:05.609Z,50.30
2018-02-10T07:22:34.768Z,52.07
2018-02-10T07:25:03.901Z,54.27
2018-02-10T07:27:33.064Z,51.13
2018-02-10T07:30:02.249Z,53.83
2018-02-10T07:32:31.388Z,51.20
2018-02-10T07:35:00.563Z,52.63
2018-02-10T07:37:29.802Z,49.03
2018-02-10T07:39:58.942Z,52.80
2018-02-10T07:42:28.177Z,51.63
2018-02-10T07:44:57.352Z,50.17
2018-02-10T07:47:26.498Z,50.50
2018-02-10T07:49:55.961Z,50.60
2018-02-10T07:52:25.104Z,50.17
2018-02-10T07:54:54.249Z,50.17
2018-02-10T07:57:23.440Z,50.63
2018-02-10T07:59:52.594Z,49.50
2018-02-10T08:02:21.741Z,52.10
2018-02-10T08:04:50.926Z,50.47
2018-02-10T08:07:20.101Z,53.00
2018-02-10T08:09:49.279Z,51.57
2018-02-10T08:12:18.595Z,48.57
2018-02-10T08:14:47.732Z,51.60
2018-02-10T08:17:16.886Z,52.10
2018-02-10T08:19:46.071Z,56.50
2018-02-10T08:22:15.211Z,53.90
2018-02-10T08:24:44.353Z,55.70
2018-02-10T08:27:13.531Z,56.03
2018-02-10T08:29:42.682Z,54.33
2018-02-10T08:32:11.885Z,57.43
2018-02-10T08:34:41.026Z,54.03
2018-02-10T08:37:10.220Z,54.13
2018-02-10T08:39:39.365Z,53.87
2018-02-10T08:42:08.510Z,58.00
2018-02-10T08:44:37.721Z,55.10
2018-02-10T08:47:07.034Z,54.17
2018-02-10T08:49:36.176Z,52.33
2018-02-10T08:52:05.778Z,53.20
2018-02-10T08:54:34.926Z,50.80
2018-02-10T08:57:04.069Z,52.80
2018-02-10T08:59:33.271Z,52.67
2018-02-10T09:02:02.417Z,51.10
2018-02-10T09:04:31.586Z,51.53
2018-02-10T09:07:00.756Z,52.87
2018-02-10T09:09:29.905Z,53.80
2018-02-10T09:11:59.043Z,55.13
2018-02-10T09:14:28.221Z,52.53
2018-02-10T09:16:57.361Z,52.97
2018-02-10T09:19:26.526Z,54.40
2018-02-10T09:21:55.781Z,51.73
2018-02-10T09:24:24.918Z,48.63
2018-02-10T09:26:54.092Z,50.70
2018-02-10T09:29:23.261Z,50.77
2018-02-10T09:31:52.400Z,47.17
2018-02-10T09:34:21.569Z,48.90
2018-02-10T09:36:50.734Z,50.17
2018-02-10T09:39:19.897Z,47.60
2018-02-10T09:41:49.056Z,49.97
2018-02-10T09:44:18.239Z,49.37
2018-02-10T09:46:47.390Z,48.57
2018-02-10T09:49:16.546Z,49.37
2018-02-10T09:51:45.791Z,48.47
2018-02-10T09:54:14.960Z,50.97
2018-02-10T09:56:44.110Z,52.47
2018-02-10T09:59:13.273Z,53.23
2018-02-10T10:01:42.903Z,49.93
2018-02-10T10:04:12.048Z,50.90
2018-02-10T10:06:41.245Z,49.27
2018-02-10T10:09:10.392Z,51.37
2018-02-10T10:11:39.550Z,50.87
2018-02-10T10:14:08.707Z,54.70
2018-02-10T10:16:37.876Z,54.53
2018-02-10T10:19:07.025Z,49.47
2018-02-10T10:21:36.213Z,50.10
2018-02-10T10:24:05.361Z,50.83
2018-02-10T10:26:34.539Z,55.17
2018-02-10T10:29:03.673Z,52.23
2018-02-10T10:31:32.841Z,50.27
2018-02-10T10:34:01.981Z,49.50
2018-02-10T10:36:31.121Z,52.60
2018-02-10T10:39:00.312Z,49.90
2018-02-10T10:41:29.477Z,48.73
2018-02-10T10:43:58.671Z,51.40
2018-02-10T10:46:27.810Z,50.37
2018-02-10T10:48:56.980Z,50.23
2018-02-10T10:51:26.125Z,50.57
2018-02-10T10:53:55.317Z,49.60
2018-02-10T10:56:24.455Z,50.43
2018-02-10T10:58:53.608Z,53.93
2018-02-10T11:01:22.788Z,46.83
2018-02-10T11:03:52.212Z,48.33
2018-02-10T11:06:21.351Z,47.80
2018-02-10T11:08:50.533Z,49.87
2018-02-10T11:11:19.695Z,50.90
2018-02-10T11:13:48.836Z,47.87
2018-02-10T11:16:18.398Z,48.20
2018-02-10T11:18:47.533Z,47.43
2018-02-10T11:21:16.676Z,48.40
2018-02-10T11:23:45.848Z,50.90
2018-02-10T11:26:15.008Z,50.20
2018-02-10T11:28:44.191Z,48.47
2018-02-10T11:31:13.721Z,50.20
2018-02-10T11:33:42.865Z,48.30
2018-02-10T11:36:12.024Z,48.20
2018-02-10T11:38:41.187Z,46.03
2018-02-10T11:41:10.343Z,44.87
2018-02-10T11:43:39.503Z,51.20
2018-02-10T11:46:08.739Z,46.10
2018-02-10T11:48:37.877Z,47.53
2018-02-10T11:51:07.034Z,45.87
2018-02-10T11:53:36.204Z,45.70
2018-02-10T11:56:05.344Z,45.20
2018-02-10T11:58:34.489Z,42.27
2018-02-10T12:01:03.686Z,45.17
2018-02-10T12:03:32.830Z,55.13
2018-02-10T12:06:02.428Z,47.37
2018-02-10T12:08:31.601Z,45.00
2018-02-10T12:11:00.759Z,40.67
2018-02-10T12:13:29.922Z,41.30
2018-02-10T12:15:59.098Z,43.83
2018-02-10T12:18:28.228Z,46.97
2018-02-10T12:20:57.399Z,48.40
2018-02-10T12:23:26.537Z,50.70
2018-02-10T12:25:55.683Z,49.10
2018-02-10T12:28:24.841Z,52.60
2018-02-10T12:30:53.985Z,52.30
2018-02-10T12:33:23.126Z,50.97
2018-02-10T12:35:52.609Z,48.37
2018-02-10T12:38:21.749Z,53.67
2018-02-10T12:40:50.885Z,53.17
2018-02-10T12:43:20.071Z,53.10
2018-02-10T12:45:49.210Z,52.50
2018-02-10T12:48:37.163Z,56.83
2018-02-10T12:51:06.349Z,49.93
2018-02-10T12:53:35.493Z,50.20
2018-02-10T12:56:04.644Z,47.23
2018-02-10T12:58:33.827Z,46.37
2018-02-10T13:01:02.976Z,43.40
2018-02-10T13:03:32.137Z,43.87
2018-02-10T13:06:01.350Z,44.10
2018-02-10T13:08:30.624Z,41.90
2018-02-10T13:10:59.772Z,41.30
2018-02-10T13:13:28.962Z,41.13
2018-02-10T13:15:58.128Z,41.70
2018-02-10T13:18:27.276Z,40.17
2018-02-10T13:20:56.413Z,39.40
2018-02-10T13:23:25.625Z,41.07
2018-02-10T13:25:54.774Z,39.57
2018-02-10T13:28:23.937Z,35.93
2018-02-10T13:30:53.097Z,37.00
2018-02-10T13:33:22.232Z,39.50
2018-02-10T13:35:51.373Z,37.13
2018-02-10T13:38:20.568Z,39.07
2018-02-10T13:40:49.702Z,37.77
2018-02-10T13:43:18.877Z,39.17
2018-02-10T13:45:48.057Z,34.47
2018-02-10T13:48:23.092Z,34.97
2018-02-10T13:50:52.255Z,35.17
2018-02-10T13:53:21.404Z,36.33
2018-02-10T13:55:50.549Z,31.33
2018-02-10T13:58:19.721Z,36.17
2018-02-10T14:00:48.867Z,40.67
2018-02-10T14:03:18.048Z,34.60
2018-02-10T14:05:47.189Z,42.43
2018-02-10T14:08:16.329Z,36.90
2018-02-10T14:10:45.889Z,45.33
2018-02-10T14:13:15.029Z,44.83
2018-02-10T14:15:44.242Z,51.00
2018-02-10T14:18:13.417Z,44.53
2018-02-10T14:20:42.586Z,47.13
2018-02-10T14:23:11.766Z,43.30
2018-02-10T14:25:40.907Z,46.80
2018-02-10T14:28:10.081Z,43.70
2018-02-10T14:30:39.221Z,43.63
2018-02-10T14:33:08.372Z,42.03
2018-02-10T14:35:37.578Z,43.33
2018-02-10T14:38:06.712Z,37.80
2018-02-10T14:40:35.895Z,40.20
2018-02-10T14:43:05.073Z,42.63
2018-02-10T14:45:34.228Z,39.43
2018-02-10T14:48:03.405Z,41.70
2018-02-10T14:50:32.557Z,37.67
2018-02-10T14:53:01.707Z,36.10
2018-02-10T14:55:30.873Z,36.33
2018-02-10T14:58:00.047Z,38.87
2018-02-10T15:00:29.191Z,37.17
2018-02-10T15:02:58.373Z,35.87
2018-02-10T15:05:27.524Z,37.13
2018-02-10T15:07:56.674Z,36.90
2018-02-10T15:10:25.813Z,35.00
2018-02-10T15:12:55.010Z,42.40
2018-02-10T15:15:24.251Z,36.50
2018-02-10T15:17:53.401Z,37.37
2018-02-10T15:20:22.546Z,35.80
2018-02-10T15:22:51.707Z,36.40
2018-02-10T15:25:20.855Z,35.73
2018-02-10T15:27:50.044Z,35.20
2018-02-10T15:30:24.882Z,37.00
2018-02-10T15:33:00.230Z,34.80
2018-02-10T15:35:29.389Z,37.30
2018-02-10T15:37:58.540Z,32.57
2018-02-10T15:40:27.713Z,31.90
2018-02-10T15:42:56.858Z,33.50
2018-02-10T15:45:26.003Z,35.37
2018-02-10T15:47:55.228Z,39.13
2018-02-10T15:50:24.376Z,39.47
2018-02-10T15:52:53.516Z,38.23
2018-02-10T15:55:22.699Z,41.90
2018-02-10T15:57:51.865Z,33.60
2018-02-10T16:00:21.053Z,33.40
2018-02-10T16:02:50.245Z,34.03
2018-02-10T16:05:19.402Z,35.53
2018-02-10T16:07:48.578Z,34.00
2018-02-10T16:10:17.761Z,34.53
2018-02-10T16:12:46.924Z,33.77
2018-02-10T16:15:16.071Z,37.30
2018-02-10T16:17:45.241Z,36.50
2018-02-10T16:20:14.419Z,37.50
2018-02-10T16:22:43.572Z,36.37
2018-02-10T16:25:12.717Z,35.57
2018-02-10T16:27:41.902Z,39.30
2018-02-10T16:30:11.049Z,37.30
2018-02-10T16:32:40.197Z,39.00
2018-02-10T16:35:09.369Z,37.33
2018-02-10T16:37:38.518Z,36.50
2018-02-10T16:40:07.655Z,38.23
2018-02-10T16:42:36.813Z,39.00
2018-02-10T16:45:05.989Z,39.73
2018-02-10T16:47:35.126Z,39.93
2018-02-10T16:50:04.314Z,39.37
2018-02-10T16:52:33.450Z,40.67
2018-02-10T16:55:02.605Z,39.87
2018-02-10T16:57:31.770Z,44.87
2018-02-10T17:00:00.935Z,39.90
2018-02-10T17:02:30.105Z,40.13
2018-02-10T17:04:59.289Z,41.00
2018-02-10T17:07:28.436Z,37.23
2018-02-10T17:09:57.591Z,39.37
2018-02-10T17:12:26.777Z,38.77
2018-02-10T17:14:55.914Z,40.27
2018-02-10T17:17:25.314Z,39.50
2018-02-10T17:19:54.492Z,37.93
2018-02-10T17:22:23.628Z,40.30
2018-02-10T17:24:52.773Z,39.47
2018-02-10T17:27:21.981Z,43.20
2018-02-10T17:29:51.137Z,38.80
2018-02-10T17:32:20.282Z,38.40
2018-02-10T17:34:49.456Z,40.50
2018-02-10T17:37:18.613Z,39.27
2018-02-10T17:39:47.758Z,41.03
2018-02-10T17:42:16.930Z,43.43
2018-02-10T17:44:46.134Z,37.13
2018-02-10T17:47:15.273Z,38.20
2018-02-10T17:49:44.411Z,41.87
2018-02-10T17:52:13.888Z,41.17
2018-02-10T17:54:43.042Z,40.53
2018-02-10T17:57:12.191Z,39.00
2018-02-10T17:59:41.349Z,38.20
2018-02-10T18:02:10.481Z,42.23
2018-02-10T18:04:39.626Z,35.97
2018-02-10T18:07:08.805Z,39.27
2018-02-10T18:09:37.951Z,39.27
2018-02-10T18:12:07.085Z,42.10
2018-02-10T18:14:36.258Z,42.80
2018-02-10T18:17:05.509Z,42.20
2018-02-10T18:19:34.648Z,41.83
2018-02-10T18:22:03.826Z,41.53
2018-02-10T18:24:32.967Z,47.33
2018-02-10T18:27:02.151Z,40.07
2018-02-10T18:29:31.328Z,40.77
2018-02-10T18:32:00.472Z,42.00
2018-02-10T18:34:29.656Z,42.70
2018-02-10T18:36:58.797Z,49.40
2018-02-10T18:39:27.969Z,43.80
2018-02-10T18:41:57.113Z,40.23
2018-02-10T18:44:26.281Z,38.27
2018-02-10T18:46:55.425Z,38.30
2018-02-10T18:49:24.595Z,38.10
2018-02-10T18:51:53.760Z,39.50
2018-02-10T18:54:22.907Z,37.77
2018-02-10T18:56:52.052Z,36.97
2018-02-10T18:59:21.213Z,39.10
2018-02-10T19:01:50.372Z,39.10
2018-02-10T19:04:19.555Z,39.60
2018-02-10T19:06:48.696Z,38.60
2018-02-10T19:09:17.875Z,38.27
2018-02-10T19:11:47.023Z,38.67
2018-02-10T19:14:16.208Z,44.53
2018-02-10T19:16:45.362Z,44.73
2018-02-10T19:19:14.542Z,41.30
2018-02-10T19:21:43.693Z,37.50
2018-02-10T19:24:12.853Z,37.87
2018-02-10T19:26:41.994Z,38.23
2018-02-10T19:29:11.133Z,37.27
2018-02-10T19:31:40.323Z,38.43
2018-02-10T19:34:09.492Z,34.93
2018-02-10T19:36:38.632Z,37.97
2018-02-10T19:39:07.769Z,36.10
2018-02-10T19:41:36.956Z,38.93
2018-02-10T19:44:06.109Z,38.50
2018-02-10T19:46:35.370Z,36.87
2018-02-10T19:49:04.505Z,38.17
2018-02-10T19:51:33.641Z,38.43
2018-02-10T19:54:02.817Z,37.73
2018-02-10T19:56:31.961Z,38.67
2018-02-10T19:59:01.109Z,36.63
2018-02-10T20:01:30.283Z,39.77
2018-02-10T20:03:59.593Z,38.00
2018-02-10T20:06:28.755Z,37.90
2018-02-10T20:08:57.903Z,40.77
2018-02-10T20:11:27.049Z,42.33
2018-02-10T20:13:56.265Z,39.87
2018-02-10T20:16:25.410Z,41.30
2018-02-10T20:18:54.584Z,42.23
2018-02-10T20:21:23.733Z,38.67
2018-02-10T20:23:52.920Z,40.13
2018-02-10T20:26:22.060Z,40.00
2018-02-10T20:28:51.237Z,41.70
2018-02-10T20:31:20.398Z,38.47
2018-02-10T20:33:49.540Z,41.10
2018-02-10T20:36:18.680Z,38.60
2018-02-10T20:38:47.854Z,41.03
2018-02-10T20:41:17.002Z,40.50
2018-02-10T20:43:46.155Z,41.90
2018-02-10T20:46:15.343Z,43.87
2018-02-10T20:48:44.477Z,43.00
2018-02-10T20:51:13.630Z,40.30
2018-02-10T20:53:42.823Z,40.10
2018-02-10T20:56:12.045Z,43.33
2018-02-10T20:58:41.196Z,41.10
2018-02-10T21:01:10.333Z,41.03
2018-02-10T21:03:39.489Z,42.47
2018-02-10T21:06:08.679Z,42.00
2018-02-10T21:08:37.794Z,41.67
2018-02-10T21:11:06.961Z,40.47
2018-02-10T21:13:36.154Z,41.40
2018-02-10T21:16:05.305Z,40.53
2018-02-10T21:18:34.494Z,39.33
2018-02-10T21:21:03.702Z,40.13
2018-02-10T21:23:32.874Z,39.53
2018-02-10T21:26:02.012Z,41.07
2018-02-10T21:28:31.160Z,40.00
2018-02-10T21:31:00.300Z,41.83
2018-02-10T21:33:29.485Z,40.93
2018-02-10T21:35:58.621Z,39.43
2018-02-10T21:38:27.795Z,40.47
2018-02-10T21:40:56.933Z,41.17
2018-02-10T21:43:26.088Z,38.47
2018-02-10T21:45:55.274Z,37.27
2018-02-10T21:48:24.458Z,37.93
2018-02-10T21:50:53.616Z,38.60
2018-02-10T21:53:23.086Z,37.43
2018-02-10T21:55:52.239Z,35.97
2018-02-10T21:58:21.389Z,36.33
2018-02-10T22:00:50.589Z,36.67
2018-02-10T22:03:19.725Z,35.80
2018-02-10T22:05:48.922Z,38.43
2018-02-10T22:08:18.112Z,37.77
2018-02-10T22:10:47.262Z,38.77
2018-02-10T22:13:16.438Z,36.87
2018-02-10T22:15:45.628Z,37.27
2018-02-10T22:18:14.788Z,38.70
2018-02-10T22:20:43.925Z,37.93
2018-02-10T22:23:13.079Z,39.30
2018-02-10T22:25:42.329Z,35.73
2018-02-10T22:28:11.481Z,36.50
2018-02-10T22:30:40.645Z,34.03
2018-02-10T22:33:09.814Z,34.10
2018-02-10T22:35:38.959Z,35.20
2018-02-10T22:38:08.137Z,34.90
2018-02-10T22:40:37.289Z,35.43
2018-02-10T22:43:06.434Z,36.10
2018-02-10T22:45:35.627Z,36.93
2018-02-10T22:48:04.781Z,40.30
2018-02-10T22:50:33.972Z,33.37
2018-02-10T22:53:03.127Z,34.30
2018-02-10T22:55:32.276Z,31.90
2018-02-10T22:58:01.425Z,34.20
2018-02-10T23:00:30.574Z,32.33
2018-02-10T23:02:59.762Z,34.57
2018-02-10T23:05:28.909Z,31.90
2018-02-10T23:07:58.537Z,33.40
2018-02-10T23:10:27.741Z,31.60
2018-02-10T23:12:56.882Z,32.67
2018-02-10T23:15:26.662Z,31.77
2018-02-10T23:17:55.845Z,33.23
2018-02-10T23:20:24.994Z,30.37
2018-02-10T23:22:54.153Z,31.73
2018-02-10T23:25:23.381Z,31.03
2018-02-10T23:27:52.517Z,32.23
2018-02-10T23:30:22.049Z,31.40
2018-02-10T23:32:51.197Z,31.37
2018-02-10T23:35:39.125Z,31.90
2018-02-10T23:38:08.289Z,29.50
2018-02-10T23:40:37.434Z,28.60
2018-02-10T23:43:06.589Z,29.30
2018-02-10T23:45:35.752Z,29.77
2018-02-10T23:48:04.894Z,28.03
2018-02-10T23:50:34.031Z,28.83
2018-02-10T23:53:03.202Z,29.00
2018-02-10T23:55:32.346Z,29.03
2018-02-10T23:58:01.493Z,28.80
